Time;durP1;ratioP1;P1;durP2;ratioP2;P2;SDS_P1;SDS_P2;PMS_P1;PMS_P2;Temp;Humidity;BMP_temperature;BMP_pressure;BME280_temperature;BME280_humidity;BME280_pressure;Samples;Min_cycle;Max_cycle;Signal;HPM_P1;HPM_P2
2023/05/06 00:01:42;;;;;;;36.20;32.70;;;13.70;99.90;;;;;;5114322;28;20436;-71
2023/05/06 00:04:10;;;;;;;33.43;30.33;;;13.70;99.90;;;;;;5114263;28;21051;-71
2023/05/06 00:06:40;;;;;;;33.83;30.73;;;13.70;99.90;;;;;;5119803;28;20428;-70
2023/05/06 00:09:09;;;;;;;33.67;30.60;;;13.60;99.90;;;;;;5116314;28;20780;-71
2023/05/06 00:11:37;;;;;;;35.20;32.00;;;13.60;99.90;;;;;;5115309;28;20435;-70
2023/05/06 00:14:06;;;;;;;32.07;29.17;;;13.60;99.90;;;;;;5114417;28;20449;-70
2023/05/06 00:16:34;;;;;;;33.47;30.50;;;13.60;99.90;;;;;;5114676;28;20459;-70
2023/05/06 00:19:02;;;;;;;34.47;31.30;;;13.60;99.90;;;;;;5114305;28;20493;-70
2023/05/06 00:21:30;;;;;;;31.87;28.90;;;13.60;99.90;;;;;;5114567;27;20842;-70
2023/05/06 00:23:58;;;;;;;30.27;27.60;;;13.50;99.90;;;;;;5114161;28;20466;-70
2023/05/06 00:26:27;;;;;;;30.47;27.77;;;13.50;99.90;;;;;;5114281;28;20432;-70
2023/05/06 00:28:55;;;;;;;31.10;28.03;;;13.50;99.90;;;;;;5114236;28;20431;-70
2023/05/06 00:31:24;;;;;;;28.77;26.20;;;13.50;99.90;;;;;;5112821;28;20447;-71
2023/05/06 00:33:52;;;;;;;30.97;28.17;;;13.50;99.90;;;;;;5113962;28;20455;-71
2023/05/06 00:36:20;;;;;;;28.67;26.07;;;13.40;99.90;;;;;;5112599;28;20972;-71
2023/05/06 00:38:49;;;;;;;29.10;26.40;;;13.40;99.90;;;;;;5114516;28;20932;-70
2023/05/06 00:41:17;;;;;;;28.60;25.90;;;13.40;99.90;;;;;;5114175;28;20792;-71
2023/05/06 00:43:45;;;;;;;30.83;27.90;;;13.40;99.90;;;;;;5113889;28;20928;-71
2023/05/06 00:46:16;;;;;;;27.93;25.33;;;13.30;99.90;;;;;;5112411;28;20471;-70
2023/05/06 00:48:45;;;;;;;28.97;26.40;;;13.30;99.90;;;;;;5112406;28;20932;-71
2023/05/06 00:51:14;;;;;;;29.13;26.70;;;13.30;99.90;;;;;;5112874;28;20485;-71
2023/05/06 00:53:45;;;;;;;27.57;25.10;;;13.30;99.90;;;;;;5113934;28;20455;-71
2023/05/06 00:56:13;;;;;;;29.93;27.17;;;13.30;99.90;;;;;;5115822;28;20954;-71
2023/05/06 00:58:41;;;;;;;29.53;26.90;;;13.30;99.90;;;;;;5114440;28;20435;-71
2023/05/06 01:01:10;;;;;;;31.90;29.00;;;13.30;99.90;;;;;;5115419;28;20788;-71
2023/05/06 01:03:38;;;;;;;32.50;29.53;;;13.30;99.90;;;;;;5113833;28;20435;-71
2023/05/06 01:06:18;;;;;;;33.03;30.03;;;13.30;99.90;;;;;;5114084;28;20463;-71
2023/05/06 01:08:55;;;;;;;33.10;30.10;;;13.30;99.90;;;;;;5113076;28;20808;-71
2023/05/06 01:11:32;;;;;;;31.03;27.93;;;13.30;99.90;;;;;;5114371;28;20427;-71
2023/05/06 01:14:07;;;;;;;35.63;32.40;;;13.30;99.90;;;;;;5112529;28;20466;-71
2023/05/06 01:16:40;;;;;;;32.70;29.73;;;13.30;99.90;;;;;;5112774;28;20459;-71
2023/05/06 01:19:26;;;;;;;33.57;30.37;;;13.20;99.90;;;;;;5113999;28;20415;-71
2023/05/06 01:21:59;;;;;;;34.97;31.57;;;13.30;99.90;;;;;;5112341;28;20444;-71
2023/05/06 01:24:36;;;;;;;38.03;34.17;;;13.20;99.90;;;;;;5112329;28;20459;-71
2023/05/06 01:27:05;;;;;;;33.60;30.27;;;13.20;99.90;;;;;;5112303;28;20424;-71
2023/05/06 01:29:35;;;;;;;36.77;33.13;;;13.20;99.90;;;;;;5113467;28;20467;-71
2023/05/06 01:32:19;;;;;;;36.10;32.70;;;13.20;99.90;;;;;;5112269;28;20439;-71
2023/05/06 01:34:54;;;;;;;37.40;33.70;;;13.20;99.90;;;;;;5113582;28;20508;-71
2023/05/06 01:37:28;;;;;;;36.37;32.97;;;13.10;99.90;;;;;;5112017;28;20460;-70
2023/05/06 01:40:00;;;;;;;36.03;32.53;;;13.10;99.90;;;;;;5112136;28;20439;-71
2023/05/06 01:42:30;;;;;;;36.80;33.27;;;13.10;99.90;;;;;;5113959;28;20885;-71
2023/05/06 01:45:02;;;;;;;34.77;31.47;;;13.00;99.90;;;;;;5112012;28;20470;-71
2023/05/06 01:47:30;;;;;;;34.90;31.60;;;13.00;99.90;;;;;;5113135;28;20821;-71
2023/05/06 01:49:59;;;;;;;32.87;30.03;;;13.00;99.90;;;;;;5113141;28;20443;-71
2023/05/06 01:52:27;;;;;;;31.87;28.93;;;12.90;99.90;;;;;;5111999;28;20545;-71
2023/05/06 01:54:57;;;;;;;34.33;30.83;;;12.90;99.90;;;;;;5113146;28;20825;-70
2023/05/06 01:57:25;;;;;;;31.70;28.87;;;12.80;99.90;;;;;;5113346;28;20467;-70
2023/05/06 01:59:54;;;;;;;32.17;29.07;;;12.80;99.90;;;;;;5115603;28;20448;-71
2023/05/06 02:02:24;;;;;;;34.83;31.10;;;12.70;99.90;;;;;;5117064;28;20416;-71
2023/05/06 02:04:53;;;;;;;33.20;30.00;;;12.70;99.90;;;;;;5115420;28;20466;-71
2023/05/06 02:07:21;;;;;;;30.67;27.97;;;12.70;99.90;;;;;;5116772;28;20442;-71
2023/05/06 02:09:50;;;;;;;29.53;26.93;;;12.70;99.90;;;;;;5115520;28;20476;-71
2023/05/06 02:12:19;;;;;;;31.23;28.43;;;12.60;99.90;;;;;;5115514;27;20848;-70
2023/05/06 02:14:48;;;;;;;30.20;27.50;;;12.60;99.90;;;;;;5115235;28;20455;-70
2023/05/06 02:17:16;;;;;;;33.13;30.17;;;12.60;99.90;;;;;;5116096;28;20459;-70
2023/05/06 02:19:44;;;;;;;30.23;27.53;;;12.50;99.90;;;;;;5115556;28;20443;-70
2023/05/06 02:22:12;;;;;;;30.27;27.67;;;12.50;99.90;;;;;;5115179;28;20444;-70
2023/05/06 02:24:40;;;;;;;31.97;29.17;;;12.50;99.90;;;;;;5115373;28;20455;-70
2023/05/06 02:27:08;;;;;;;30.80;27.93;;;12.50;99.90;;;;;;5115184;28;20435;-70
2023/05/06 02:29:37;;;;;;;32.40;29.43;;;12.50;99.90;;;;;;5115123;28;20447;-70
2023/05/06 02:32:05;;;;;;;30.70;28.20;;;12.50;99.90;;;;;;5116567;28;20993;-70
2023/05/06 02:34:33;;;;;;;32.50;29.70;;;12.40;99.90;;;;;;5114924;28;20988;-71
2023/05/06 02:37:02;;;;;;;30.50;27.93;;;12.40;99.90;;;;;;5116102;28;20467;-70
2023/05/06 02:39:30;;;;;;;31.20;28.50;;;12.40;99.90;;;;;;5114823;28;20435;-71
2023/05/06 02:41:58;;;;;;;31.07;28.37;;;12.40;99.90;;;;;;5116135;28;20443;-70
2023/05/06 02:44:26;;;;;;;30.90;28.07;;;12.40;99.90;;;;;;5116161;28;20459;-70
2023/05/06 02:46:55;;;;;;;33.27;30.27;;;12.40;99.90;;;;;;5116506;28;20445;-70
2023/05/06 02:49:23;;;;;;;32.63;29.53;;;12.30;99.90;;;;;;5115995;28;20448;-70
2023/05/06 02:51:52;;;;;;;31.97;28.90;;;12.30;99.90;;;;;;5116250;28;21010;-71
2023/05/06 02:54:20;;;;;;;33.20;30.10;;;12.30;99.90;;;;;;5114642;28;20956;-71
2023/05/06 02:56:48;;;;;;;32.70;29.60;;;12.30;99.90;;;;;;5114470;28;20471;-70
2023/05/06 02:59:16;;;;;;;33.30;30.30;;;12.30;99.90;;;;;;5114550;28;20435;-70
2023/05/06 03:01:44;;;;;;;35.37;32.27;;;12.30;99.90;;;;;;5114510;28;20450;-70
2023/05/06 03:04:14;;;;;;;35.03;31.80;;;12.30;99.90;;;;;;5114339;28;20983;-71
2023/05/06 03:06:42;;;;;;;34.33;30.93;;;12.30;99.90;;;;;;5114402;28;20443;-71
2023/05/06 03:09:10;;;;;;;37.30;33.50;;;12.30;99.90;;;;;;5114341;28;20447;-70
2023/05/06 03:11:38;;;;;;;37.57;33.53;;;12.20;99.90;;;;;;5114503;28;20861;-70
2023/05/06 03:14:07;;;;;;;37.47;34.03;;;12.20;99.90;;;;;;5114101;28;20455;-70
2023/05/06 03:16:35;;;;;;;36.27;33.07;;;12.20;99.90;;;;;;5113992;28;20490;-70
2023/05/06 03:19:04;;;;;;;38.07;34.37;;;12.20;99.90;;;;;;5114060;28;20815;-71
2023/05/06 03:21:34;;;;;;;36.80;33.30;;;12.20;99.90;;;;;;5114031;28;20458;-70
2023/05/06 03:24:03;;;;;;;36.20;32.80;;;12.10;99.90;;;;;;5114377;28;20538;-70
2023/05/06 03:26:31;;;;;;;38.10;34.63;;;12.10;99.90;;;;;;5113869;28;20529;-70
2023/05/06 03:29:00;;;;;;;37.90;34.30;;;12.10;99.90;;;;;;5113936;28;20440;-70
2023/05/06 03:31:28;;;;;;;36.70;33.20;;;12.10;99.90;;;;;;5117709;28;20438;-71
2023/05/06 03:33:58;;;;;;;36.97;33.50;;;12.10;99.90;;;;;;5117018;28;20536;-70
2023/05/06 03:36:27;;;;;;;38.13;34.53;;;12.10;99.90;;;;;;5115215;28;20475;-70
2023/05/06 03:38:57;;;;;;;39.03;35.13;;;12.10;99.90;;;;;;5115656;28;20790;-70
2023/05/06 03:41:25;;;;;;;39.17;35.40;;;12.00;99.90;;;;;;5115558;28;20436;-71
2023/05/06 03:43:54;;;;;;;38.60;35.00;;;12.00;99.90;;;;;;5113998;28;20471;-70
2023/05/06 03:46:26;;;;;;;38.60;34.90;;;12.00;99.90;;;;;;5114135;28;20447;-70
2023/05/06 03:48:54;;;;;;;39.30;35.27;;;11.90;99.90;;;;;;5113422;28;20542;-70
2023/05/06 03:51:23;;;;;;;37.97;34.40;;;11.90;99.90;;;;;;5113238;28;20439;-70
2023/05/06 03:53:51;;;;;;;38.10;34.73;;;11.90;99.90;;;;;;5113117;27;20444;-70
2023/05/06 03:56:23;;;;;;;39.47;35.60;;;11.90;99.90;;;;;;5113208;28;20440;-70
2023/05/06 03:58:54;;;;;;;40.30;36.40;;;11.90;99.90;;;;;;5113363;28;20994;-70
2023/05/06 04:01:24;;;;;;;40.37;36.67;;;11.90;99.90;;;;;;5113333;28;20427;-70
2023/05/06 04:03:53;;;;;;;41.60;37.50;;;11.90;99.90;;;;;;5113168;28;20451;-70
2023/05/06 04:06:22;;;;;;;41.07;37.07;;;11.80;99.90;;;;;;5113177;28;20777;-70
2023/05/06 04:08:50;;;;;;;42.97;38.80;;;11.80;99.90;;;;;;5113157;28;20443;-70
2023/05/06 04:11:19;;;;;;;42.67;38.60;;;11.80;99.90;;;;;;5113122;28;20952;-70
2023/05/06 04:13:50;;;;;;;43.23;38.80;;;11.70;99.90;;;;;;5112908;28;20504;-70
2023/05/06 04:16:21;;;;;;;41.30;37.33;;;11.70;99.90;;;;;;5113634;28;20446;-70
2023/05/06 04:18:50;;;;;;;40.43;36.40;;;11.70;99.90;;;;;;5112907;28;20520;-70
2023/05/06 04:21:19;;;;;;;41.20;37.13;;;11.70;99.90;;;;;;5112557;28;20807;-70
2023/05/06 04:23:53;;;;;;;41.43;37.47;;;11.70;99.90;;;;;;5112849;28;20519;-70
2023/05/06 04:26:27;;;;;;;38.43;34.73;;;11.70;99.90;;;;;;5113126;28;20567;-70
2023/05/06 04:28:57;;;;;;;39.33;35.60;;;11.60;99.90;;;;;;5112819;28;20446;-70
2023/05/06 04:31:29;;;;;;;40.17;36.27;;;11.70;99.90;;;;;;5112794;28;20443;-70
2023/05/06 04:34:03;;;;;;;37.67;34.07;;;11.70;99.90;;;;;;5112756;28;20491;-70
2023/05/06 04:36:32;;;;;;;35.80;32.40;;;11.60;99.90;;;;;;5114550;28;20462;-70
2023/05/06 04:39:19;;;;;;;37.53;33.93;;;11.60;99.90;;;;;;5114070;28;20801;-70
2023/05/06 04:41:48;;;;;;;36.10;32.70;;;11.60;99.90;;;;;;5112709;28;20542;-71
2023/05/06 04:44:24;;;;;;;37.23;33.70;;;11.70;99.90;;;;;;5112948;28;20462;-71
2023/05/06 04:46:53;;;;;;;37.07;33.30;;;11.70;99.90;;;;;;5112863;28;20439;-70
2023/05/06 04:49:21;;;;;;;37.73;34.17;;;11.70;99.90;;;;;;5112496;28;20443;-71
2023/05/06 04:51:50;;;;;;;39.17;35.27;;;11.70;99.90;;;;;;5112554;28;20478;-71
2023/05/06 04:54:19;;;;;;;37.47;33.87;;;11.70;99.90;;;;;;5112605;28;20516;-70
2023/05/06 04:56:47;;;;;;;38.10;34.40;;;11.70;99.90;;;;;;5113841;28;20445;-71
2023/05/06 04:59:17;;;;;;;35.80;32.50;;;11.70;99.90;;;;;;5112820;28;20467;-70
2023/05/06 05:01:47;;;;;;;36.87;33.33;;;11.70;99.90;;;;;;5112533;28;20451;-70
2023/05/06 05:04:16;;;;;;;37.83;34.20;;;11.70;99.90;;;;;;5112433;28;20528;-70
2023/05/06 05:06:44;;;;;;;34.87;31.63;;;11.70;99.90;;;;;;5112496;28;20878;-70
2023/05/06 05:09:12;;;;;;;36.60;33.03;;;11.70;99.90;;;;;;5113670;28;20439;-70
2023/05/06 05:11:43;;;;;;;35.30;32.13;;;11.70;99.90;;;;;;5112418;28;20955;-70
2023/05/06 05:14:11;;;;;;;34.47;31.27;;;11.70;99.90;;;;;;5112556;28;20566;-70
2023/05/06 05:16:40;;;;;;;37.03;33.53;;;11.70;99.90;;;;;;5112368;28;20454;-70
2023/05/06 05:19:10;;;;;;;37.00;33.60;;;11.70;99.90;;;;;;5112331;28;20463;-70
2023/05/06 05:21:39;;;;;;;36.23;32.83;;;11.70;99.90;;;;;;5112287;28;20431;-70
2023/05/06 05:24:09;;;;;;;37.60;34.00;;;11.70;99.90;;;;;;5112437;28;20467;-70
2023/05/06 05:26:37;;;;;;;33.97;30.83;;;11.70;99.90;;;;;;5112486;28;20780;-70
2023/05/06 05:29:06;;;;;;;33.77;30.60;;;11.70;99.90;;;;;;5112284;28;20439;-70
2023/05/06 05:31:35;;;;;;;35.33;31.73;;;11.70;99.90;;;;;;5113947;28;20432;-70
2023/05/06 05:34:04;;;;;;;36.00;32.57;;;11.80;99.90;;;;;;5117781;28;20493;-70
2023/05/06 05:36:34;;;;;;;35.40;32.07;;;11.80;99.90;;;;;;5117435;28;20997;-70
2023/05/06 05:39:05;;;;;;;35.30;31.90;;;11.80;99.90;;;;;;5116650;28;20459;-70
2023/05/06 05:41:36;;;;;;;35.73;32.33;;;11.80;99.90;;;;;;5116404;28;20862;-70
2023/05/06 05:44:05;;;;;;;36.07;32.77;;;11.80;99.90;;;;;;5115835;28;20476;-70
2023/05/06 05:46:34;;;;;;;36.40;32.90;;;11.80;99.90;;;;;;5115973;27;20439;-70
2023/05/06 05:49:04;;;;;;;33.63;30.43;;;11.80;99.90;;;;;;5115902;28;20504;-70
2023/05/06 05:51:35;;;;;;;35.07;31.70;;;11.90;99.90;;;;;;5115793;28;20835;-71
2023/05/06 05:54:05;;;;;;;35.40;31.77;;;11.90;99.90;;;;;;5115740;28;20467;-70
2023/05/06 05:56:36;;;;;;;34.73;31.10;;;11.90;99.90;;;;;;5115702;28;20810;-70
2023/05/06 05:59:05;;;;;;;33.33;30.13;;;12.00;99.90;;;;;;5117117;28;20531;-70
2023/05/06 06:01:33;;;;;;;34.43;30.90;;;12.00;99.90;;;;;;5115684;28;20501;-70
2023/05/06 06:04:01;;;;;;;35.47;32.03;;;12.00;99.90;;;;;;5115520;28;20542;-70
2023/05/06 06:06:30;;;;;;;31.83;28.53;;;12.00;99.90;;;;;;5115555;28;20463;-70
2023/05/06 06:09:00;;;;;;;31.63;28.63;;;12.10;99.90;;;;;;5117668;28;20464;-70
2023/05/06 06:11:29;;;;;;;32.67;29.20;;;12.10;99.90;;;;;;5116155;28;20444;-70
2023/05/06 06:13:58;;;;;;;32.30;29.10;;;12.10;99.90;;;;;;5115690;28;20905;-70
2023/05/06 06:16:27;;;;;;;33.23;30.00;;;12.10;99.90;;;;;;5115355;28;20959;-70
2023/05/06 06:18:56;;;;;;;31.20;27.97;;;12.10;99.90;;;;;;5115277;28;20540;-70
2023/05/06 06:21:26;;;;;;;30.40;27.40;;;12.20;99.90;;;;;;5115252;28;20440;-70
2023/05/06 06:23:54;;;;;;;33.83;30.73;;;12.20;99.90;;;;;;5115148;28;20471;-70
2023/05/06 06:26:24;;;;;;;31.87;28.70;;;12.20;99.90;;;;;;5115159;28;20455;-70
2023/05/06 06:28:52;;;;;;;31.30;28.20;;;12.30;99.90;;;;;;5115132;28;20444;-70
2023/05/06 06:31:20;;;;;;;32.83;29.37;;;12.30;99.90;;;;;;5115232;28;20446;-70
2023/05/06 06:33:48;;;;;;;33.53;30.07;;;12.30;99.90;;;;;;5116240;28;20436;-70
2023/05/06 06:36:16;;;;;;;30.93;27.93;;;12.40;99.90;;;;;;5116515;28;20424;-70
2023/05/06 06:38:44;;;;;;;32.87;29.60;;;12.40;99.90;;;;;;5114837;28;20471;-70
2023/05/06 06:41:12;;;;;;;30.33;27.43;;;12.40;99.90;;;;;;5116177;28;20439;-70
2023/05/06 06:43:42;;;;;;;31.27;28.33;;;12.40;99.90;;;;;;5116001;28;20435;-70
2023/05/06 06:46:23;;;;;;;31.00;28.00;;;12.40;99.90;;;;;;5114783;27;20462;-70
2023/05/06 06:48:52;;;;;;;29.50;26.70;;;12.40;99.90;;;;;;5115855;28;20443;-71
2023/05/06 06:51:20;;;;;;;31.03;28.03;;;12.50;99.90;;;;;;5116250;28;20872;-71
2023/05/06 06:53:49;;;;;;;31.53;28.40;;;12.50;99.90;;;;;;5114554;28;20860;-71
2023/05/06 06:56:17;;;;;;;32.97;29.57;;;12.50;99.90;;;;;;5114633;28;20446;-70
2023/05/06 06:58:47;;;;;;;30.40;27.30;;;12.50;99.90;;;;;;5120540;28;20467;-70
2023/05/06 07:01:15;;;;;;;30.77;27.83;;;12.50;99.90;;;;;;5116945;28;20431;-70
2023/05/06 07:03:43;;;;;;;29.90;27.10;;;12.60;99.90;;;;;;5116051;28;20439;-70
2023/05/06 07:06:11;;;;;;;29.33;26.57;;;12.60;99.90;;;;;;5116037;28;20833;-71
2023/05/06 07:08:39;;;;;;;29.73;26.80;;;12.60;99.90;;;;;;5115797;28;20485;-70
2023/05/06 07:11:07;;;;;;;32.00;28.90;;;12.60;99.90;;;;;;5115989;28;20864;-70
2023/05/06 07:13:36;;;;;;;29.87;27.07;;;12.70;99.90;;;;;;5114461;28;20473;-70
2023/05/06 07:16:06;;;;;;;31.60;28.50;;;12.70;99.90;;;;;;5115464;28;20446;-70
2023/05/06 07:18:34;;;;;;;31.03;27.77;;;12.80;99.90;;;;;;5115457;28;20439;-70
2023/05/06 07:21:02;;;;;;;35.60;32.00;;;12.80;99.90;;;;;;5115753;28;20435;-70
2023/05/06 07:23:30;;;;;;;33.60;30.30;;;12.80;99.90;;;;;;5115635;28;20951;-70
2023/05/06 07:25:59;;;;;;;32.43;29.17;;;12.90;99.90;;;;;;5115619;28;20432;-70
2023/05/06 07:28:27;;;;;;;31.57;28.57;;;12.90;99.90;;;;;;5114386;28;20443;-71
2023/05/06 07:30:55;;;;;;;31.90;28.70;;;13.00;99.90;;;;;;5115138;28;20431;-70
2023/05/06 07:33:25;;;;;;;31.60;28.40;;;13.00;99.90;;;;;;5113832;28;20922;-70
2023/05/06 07:35:53;;;;;;;31.67;28.67;;;13.10;99.90;;;;;;5115114;28;20553;-70
2023/05/06 07:38:22;;;;;;;30.43;27.50;;;13.10;99.90;;;;;;5115068;27;20467;-70
2023/05/06 07:40:50;;;;;;;29.30;26.50;;;13.10;99.90;;;;;;5115110;28;20475;-71
2023/05/06 07:43:18;;;;;;;29.70;26.80;;;13.20;99.90;;;;;;5115001;28;20435;-70
2023/05/06 07:45:46;;;;;;;29.27;26.63;;;13.20;99.90;;;;;;5114947;28;20972;-70
2023/05/06 07:48:15;;;;;;;29.73;26.90;;;13.30;99.90;;;;;;5113628;28;20486;-70
2023/05/06 07:50:47;;;;;;;28.47;25.63;;;13.30;99.90;;;;;;5113551;28;20469;-70
2023/05/06 07:53:16;;;;;;;29.20;26.50;;;13.30;99.90;;;;;;5114782;28;20457;-70
2023/05/06 07:55:44;;;;;;;27.27;24.57;;;13.30;99.90;;;;;;5113988;28;20459;-70
2023/05/06 07:58:12;;;;;;;28.00;25.20;;;13.30;99.90;;;;;;5115041;28;20485;-70
2023/05/06 08:00:41;;;;;;;25.77;23.27;;;13.40;99.90;;;;;;5114578;28;20516;-70
2023/05/06 08:03:09;;;;;;;27.80;25.10;;;13.40;99.90;;;;;;5114710;28;20870;-70
2023/05/06 08:05:37;;;;;;;26.10;23.57;;;13.40;99.90;;;;;;5114882;28;20539;-70
2023/05/06 08:08:06;;;;;;;27.40;24.70;;;13.40;99.90;;;;;;5114789;28;20930;-70
2023/05/06 08:10:34;;;;;;;27.20;24.43;;;13.50;99.90;;;;;;5113138;28;20546;-70
2023/05/06 08:13:02;;;;;;;28.13;25.60;;;13.50;99.90;;;;;;5114483;28;20502;-70
2023/05/06 08:15:31;;;;;;;28.53;25.73;;;13.60;99.90;;;;;;5114367;27;20451;-70
2023/05/06 08:17:59;;;;;;;29.10;23.90;;;13.60;99.90;;;;;;5114716;28;20427;-70
2023/05/06 08:20:41;;;;;;;28.23;25.33;;;13.70;99.90;;;;;;5114760;28;20451;-70
2023/05/06 08:23:10;;;;;;;27.70;25.10;;;13.80;99.90;;;;;;5114267;28;20439;-70
2023/05/06 08:25:38;;;;;;;26.20;23.33;;;13.80;99.90;;;;;;5112847;28;20850;-70
2023/05/06 08:28:06;;;;;;;24.80;22.40;;;13.90;99.90;;;;;;5114539;28;20501;-70
2023/05/06 08:30:34;;;;;;;26.53;23.83;;;13.90;99.90;;;;;;5114796;28;20459;-70
2023/05/06 08:33:02;;;;;;;25.13;22.50;;;13.90;99.90;;;;;;5114052;28;20936;-70
2023/05/06 08:35:31;;;;;;;26.80;24.20;;;14.00;99.90;;;;;;5114189;28;20462;-70
2023/05/06 08:37:59;;;;;;;24.70;22.20;;;14.10;99.90;;;;;;5114104;28;20431;-70
2023/05/06 08:40:31;;;;;;;24.17;21.90;;;14.10;99.90;;;;;;5115017;28;20464;-70
2023/05/06 08:43:01;;;;;;;25.80;23.27;;;14.10;99.90;;;;;;5116065;28;20876;-70
2023/05/06 08:45:29;;;;;;;25.30;22.80;;;14.20;99.90;;;;;;5115629;28;20508;-70
2023/05/06 08:47:57;;;;;;;25.30;22.87;;;14.20;99.90;;;;;;5113919;28;20435;-71
2023/05/06 08:50:26;;;;;;;26.17;23.53;;;14.20;99.90;;;;;;5116025;28;20443;-71
2023/05/06 08:52:54;;;;;;;25.13;22.73;;;14.20;99.90;;;;;;5115724;28;20434;-71
2023/05/06 08:55:24;;;;;;;26.27;23.67;;;14.30;99.90;;;;;;5114496;28;20455;-71
2023/05/06 08:57:54;;;;;;;26.23;23.53;;;14.30;99.90;;;;;;5113571;28;20443;-71
2023/05/06 09:00:22;;;;;;;25.50;23.00;;;14.40;99.90;;;;;;5113027;28;20931;-71
2023/05/06 09:02:50;;;;;;;27.50;24.70;;;14.50;99.90;;;;;;5114775;28;20447;-71
2023/05/06 09:05:19;;;;;;;25.37;22.67;;;14.60;99.90;;;;;;5114522;28;20463;-70
2023/05/06 09:07:47;;;;;;;26.33;23.47;;;14.70;99.90;;;;;;5118107;28;20435;-71
2023/05/06 09:10:16;;;;;;;25.23;22.73;;;14.70;99.90;;;;;;5118235;28;20457;-71
2023/05/06 09:12:45;;;;;;;26.13;23.43;;;14.80;99.90;;;;;;5116810;28;20442;-70
2023/05/06 09:15:15;;;;;;;25.23;22.87;;;14.80;99.90;;;;;;5118040;28;20856;-71
2023/05/06 09:17:43;;;;;;;24.97;22.53;;;14.90;99.90;;;;;;5118619;28;20530;-71
2023/05/06 09:20:12;;;;;;;25.67;23.20;;;15.00;99.90;;;;;;5116546;28;20842;-71
2023/05/06 09:22:41;;;;;;;22.73;20.40;;;15.10;99.90;;;;;;5116535;28;20474;-71
2023/05/06 09:25:10;;;;;;;24.67;22.27;;;15.30;99.90;;;;;;5117719;28;20459;-71
2023/05/06 09:27:40;;;;;;;22.90;20.60;;;15.50;99.90;;;;;;5118125;28;20415;-71
2023/05/06 09:30:10;;;;;;;21.40;19.37;;;15.70;99.90;;;;;;5117690;28;20438;-71
2023/05/06 09:32:40;;;;;;;22.23;20.07;;;15.80;99.90;;;;;;5117946;28;20439;-71
2023/05/06 09:35:10;;;;;;;23.40;21.00;;;15.80;99.90;;;;;;5116267;28;20463;-71
2023/05/06 09:37:39;;;;;;;21.53;19.43;;;15.90;99.90;;;;;;5117579;28;20417;-71
2023/05/06 09:40:09;;;;;;;20.60;18.67;;;15.90;99.90;;;;;;5117638;28;20463;-71
2023/05/06 09:42:38;;;;;;;19.87;17.83;;;15.90;99.90;;;;;;5118110;28;20412;-71
2023/05/06 09:45:09;;;;;;;22.00;19.70;;;15.90;99.90;;;;;;5116124;28;20438;-71
2023/05/06 09:47:38;;;;;;;22.60;20.40;;;16.00;99.90;;;;;;5117889;28;20427;-71
2023/05/06 09:50:10;;;;;;;24.17;21.67;;;16.00;99.90;;;;;;5117032;28;20447;-71
2023/05/06 09:52:38;;;;;;;23.50;21.20;;;16.00;99.90;;;;;;5116058;28;20932;-71
2023/05/06 09:55:07;;;;;;;21.77;19.60;;;16.20;99.90;;;;;;5117188;28;20426;-71
2023/05/06 09:57:37;;;;;;;23.13;20.87;;;16.30;99.90;;;;;;5117132;28;20427;-71
2023/05/06 10:00:08;;;;;;;21.07;19.17;;;16.40;99.90;;;;;;5117246;28;21014;-71
2023/05/06 10:02:42;;;;;;;21.40;19.30;;;16.40;99.90;;;;;;5117556;28;20424;-71
2023/05/06 10:05:13;;;;;;;19.47;17.60;;;16.40;99.90;;;;;;5115982;28;20473;-71
2023/05/06 10:07:42;;;;;;;19.70;17.70;;;16.50;99.90;;;;;;5117553;28;20390;-71
2023/05/06 10:10:11;;;;;;;19.43;17.50;;;16.50;99.90;;;;;;5117293;28;20481;-71
2023/05/06 10:12:40;;;;;;;18.50;16.70;;;16.50;99.90;;;;;;5118192;28;20934;-71
2023/05/06 10:15:09;;;;;;;17.27;15.50;;;16.50;99.90;;;;;;5117131;28;20796;-71
2023/05/06 10:17:39;;;;;;;17.50;15.27;;;16.60;99.90;;;;;;5116234;28;20943;-71
2023/05/06 10:20:11;;;;;;;17.73;16.07;;;16.60;99.90;;;;;;5119608;28;20501;-71
2023/05/06 10:22:49;;;;;;;17.10;15.50;;;16.70;99.90;;;;;;5117719;28;20395;-71
2023/05/06 10:25:29;;;;;;;16.37;14.67;;;16.80;99.90;;;;;;5117021;28;20455;-71
2023/05/06 10:27:57;;;;;;;19.03;17.23;;;16.80;99.90;;;;;;5117200;28;20448;-71
2023/05/06 10:30:28;;;;;;;21.43;19.43;;;16.80;99.90;;;;;;5116547;28;20410;-71
2023/05/06 10:32:59;;;;;;;18.80;16.80;;;16.80;99.90;;;;;;5117004;28;20391;-72
2023/05/06 10:35:36;;;;;;;17.00;15.30;;;16.90;99.90;;;;;;5116296;28;20425;-73
2023/05/06 10:38:08;;;;;;;17.70;15.97;;;16.90;99.90;;;;;;5116443;28;20471;-73
2023/05/06 10:40:37;;;;;;;20.33;18.33;;;17.00;99.90;;;;;;5116200;28;20945;-73
2023/05/06 10:43:23;;;;;;;17.30;15.70;;;17.00;99.90;;;;;;5116464;28;21027;-73
2023/05/06 10:46:06;;;;;;;16.77;15.17;;;17.00;99.90;;;;;;5116558;28;20440;-73
2023/05/06 10:48:36;;;;;;;18.07;16.17;;;17.00;99.90;;;;;;5116058;28;20394;-73
2023/05/06 10:51:24;;;;;;;17.60;15.80;;;17.00;99.90;;;;;;5116632;28;20894;-73
2023/05/06 10:54:06;;;;;;;18.37;16.43;;;17.00;99.90;;;;;;5115869;27;20423;-73
2023/05/06 10:56:36;;;;;;;18.17;16.47;;;17.10;99.90;;;;;;5116052;28;20744;-73
2023/05/06 10:59:07;;;;;;;17.30;15.70;;;17.20;99.90;;;;;;5114741;28;20493;-73
2023/05/06 11:01:36;;;;;;;16.50;14.83;;;17.30;99.90;;;;;;5116095;28;20433;-72
2023/05/06 11:04:07;;;;;;;17.13;15.30;;;17.40;99.90;;;;;;5115827;28;20434;-73
2023/05/06 11:06:37;;;;;;;14.60;13.07;;;17.60;99.90;;;;;;5116133;28;20394;-72
2023/05/06 11:09:07;;;;;;;15.87;14.27;;;17.70;99.90;;;;;;5115927;28;20467;-73
2023/05/06 11:11:48;;;;;;;16.87;15.20;;;17.90;99.90;;;;;;5115645;28;20409;-73
2023/05/06 11:14:26;;;;;;;14.90;13.50;;;18.00;99.90;;;;;;5115746;28;20451;-73
2023/05/06 11:16:55;;;;;;;14.63;13.23;;;18.00;99.90;;;;;;5116054;28;20394;-73
2023/05/06 11:19:25;;;;;;;14.50;13.20;;;18.10;99.90;;;;;;5115513;28;20465;-73
2023/05/06 11:21:56;;;;;;;14.53;12.23;;;18.20;99.90;;;;;;5115334;28;20463;-73
2023/05/06 11:24:27;;;;;;;12.90;11.63;;;18.20;99.90;;;;;;5114094;28;20520;-73
2023/05/06 11:26:56;;;;;;;13.90;12.47;;;18.30;99.90;;;;;;5115372;28;20514;-73
2023/05/06 11:29:25;;;;;;;14.77;11.83;;;18.30;99.90;;;;;;5112927;28;20447;-72
2023/05/06 11:31:53;;;;;;;12.57;10.03;;;18.30;99.90;;;;;;5115525;28;20428;-73
2023/05/06 11:34:26;;;;;;;11.50;9.50;;;18.20;99.90;;;;;;5115115;28;20462;-73
2023/05/06 11:37:01;;;;;;;10.70;9.60;;;18.30;99.90;;;;;;5115463;28;20506;-73
2023/05/06 11:39:32;;;;;;;10.60;9.50;;;18.30;99.90;;;;;;5113831;28;20443;-73
2023/05/06 11:42:07;;;;;;;9.83;7.90;;;18.30;99.90;;;;;;5114970;28;20553;-73
2023/05/06 11:44:37;;;;;;;9.40;8.40;;;18.30;99.90;;;;;;5114883;28;20434;-73
2023/05/06 11:47:08;;;;;;;9.47;8.57;;;18.30;99.90;;;;;;5115220;28;20948;-73
2023/05/06 11:49:38;;;;;;;16.93;15.13;;;18.40;99.90;;;;;;5115128;28;20447;-73
2023/05/06 11:52:07;;;;;;;19.00;17.23;;;18.50;99.90;;;;;;5115176;28;20778;-72
2023/05/06 11:54:39;;;;;;;20.33;18.30;;;18.50;99.90;;;;;;5114819;28;20455;-72
2023/05/06 11:57:07;;;;;;;21.50;19.50;;;18.50;99.90;;;;;;5115095;28;20398;-72
2023/05/06 11:59:37;;;;;;;21.97;19.87;;;18.50;99.90;;;;;;5115220;28;20480;-72
2023/05/06 12:02:07;;;;;;;19.57;17.63;;;18.50;99.90;;;;;;5114978;28;20434;-72
2023/05/06 12:04:39;;;;;;;18.97;17.20;;;18.40;99.90;;;;;;5114600;28;20817;-73
2023/05/06 12:07:09;;;;;;;18.70;17.00;;;18.40;99.90;;;;;;5114930;28;20787;-72
2023/05/06 12:09:42;;;;;;;21.30;19.20;;;18.40;99.90;;;;;;5114591;28;20430;-72
2023/05/06 12:12:11;;;;;;;20.57;18.57;;;18.40;99.90;;;;;;5114550;28;20416;-72
2023/05/06 12:14:39;;;;;;;21.10;19.00;;;18.40;99.90;;;;;;5114421;28;20458;-73
2023/05/06 12:17:08;;;;;;;20.00;18.30;;;18.50;99.90;;;;;;5113122;28;21029;-73
2023/05/06 12:19:36;;;;;;;18.63;16.67;;;18.50;99.90;;;;;;5114412;27;20497;-73
2023/05/06 12:22:17;;;;;;;18.47;16.87;;;18.60;99.90;;;;;;5114410;28;20520;-73
2023/05/06 12:24:48;;;;;;;19.13;17.23;;;18.70;99.90;;;;;;5114428;28;20462;-72
2023/05/06 12:27:29;;;;;;;18.87;16.87;;;18.80;99.90;;;;;;5114653;28;20427;-73
2023/05/06 12:29:57;;;;;;;17.90;16.23;;;18.80;99.90;;;;;;5114446;28;20826;-73
2023/05/06 12:32:25;;;;;;;17.47;15.77;;;18.90;99.90;;;;;;5114425;28;20432;-72
2023/05/06 12:34:54;;;;;;;19.37;17.57;;;18.90;99.90;;;;;;5112748;28;20554;-73
2023/05/06 12:37:28;;;;;;;18.03;16.43;;;18.90;99.90;;;;;;5114436;28;20439;-73
2023/05/06 12:39:58;;;;;;;17.47;15.70;;;18.90;99.90;;;;;;5112888;28;20439;-72
2023/05/06 12:42:27;;;;;;;17.97;16.27;;;18.90;99.90;;;;;;5112475;28;20506;-72